sensor_id;sensor_type;location;lat;lon;timestamp;pressure;altitude;pressure_sealevel;temperature;humidity
57628;BME280;43451;49.060;10.616;2023-08-06T00:00:38;96023.56;;;14.14;100.00
57628;BME280;43451;49.060;10.616;2023-08-06T00:03:04;96019.81;;;14.08;100.00
57628;BME280;43451;49.060;10.616;2023-08-06T00:05:30;96021.22;;;14.00;100.00
57628;BME280;43451;49.060;10.616;2023-08-06T00:07:56;96021.34;;;13.96;100.00
57628;BME280;43451;49.060;10.616;2023-08-06T00:10:22;96009.91;;;13.85;100.00
57628;BME280;43451;49.060;10.616;2023-08-06T00:12:47;96013.09;;;13.83;100.00
57628;BME280;43451;49.060;10.616;2023-08-06T00:15:14;96010.81;;;13.94;100.00
57628;BME280;43451;49.060;10.616;2023-08-06T00:17:39;96012.53;;;13.88;100.00
57628;BME280;43451;49.060;10.616;2023-08-06T00:20:05;96012.63;;;13.85;100.00
57628;BME280;43451;49.060;10.616;2023-08-06T00:22:35;96000.97;;;13.84;100.00
57628;BME280;43451;49.060;10.616;2023-08-06T00:25:02;96002.56;;;13.82;100.00
57628;BME280;43451;49.060;10.616;2023-08-06T00:27:28;96002.16;;;13.83;100.00
57628;BME280;43451;49.060;10.616;2023-08-06T00:29:53;95997.66;;;13.77;100.00
57628;BME280;43451;49.060;10.616;2023-08-06T00:32:19;96000.13;;;13.71;100.00
57628;BME280;43451;49.060;10.616;2023-08-06T00:34:45;95994.31;;;13.69;100.00
57628;BME280;43451;49.060;10.616;2023-08-06T00:37:10;95995.00;;;13.73;100.00
57628;BME280;43451;49.060;10.616;2023-08-06T00:39:36;95992.25;;;13.73;100.00
57628;BME280;43451;49.060;10.616;2023-08-06T00:42:01;95991.00;;;13.78;100.00
57628;BME280;43451;49.060;10.616;2023-08-06T00:44:27;95988.69;;;13.76;100.00
57628;BME280;43451;49.060;10.616;2023-08-06T00:46:52;95987.81;;;13.79;100.00
57628;BME280;43451;49.060;10.616;2023-08-06T00:49:18;95988.16;;;13.81;100.00
57628;BME280;43451;49.060;10.616;2023-08-06T00:51:44;95984.56;;;13.84;100.00
57628;BME280;43451;49.060;10.616;2023-08-06T00:54:10;95984.56;;;13.84;100.00
57628;BME280;43451;49.060;10.616;2023-08-06T00:56:36;95978.25;;;13.87;100.00
57628;BME280;43451;49.060;10.616;2023-08-06T00:59:03;95983.63;;;13.91;100.00
57628;BME280;43451;49.060;10.616;2023-08-06T01:01:30;95996.84;;;13.92;100.00
57628;BME280;43451;49.060;10.616;2023-08-06T01:03:56;95992.25;;;13.89;100.00
57628;BME280;43451;49.060;10.616;2023-08-06T01:06:48;95984.38;;;13.91;100.00
57628;BME280;43451;49.060;10.616;2023-08-06T01:11:45;95987.09;;;13.91;100.00
57628;BME280;43451;49.060;10.616;2023-08-06T01:14:27;95987.09;;;13.91;100.00
57628;BME280;43451;49.060;10.616;2023-08-06T01:16:54;95990.69;;;13.88;100.00
57628;BME280;43451;49.060;10.616;2023-08-06T01:19:21;95989.16;;;13.87;100.00
57628;BME280;43451;49.060;10.616;2023-08-06T01:21:46;95990.78;;;13.85;100.00
57628;BME280;43451;49.060;10.616;2023-08-06T01:24:12;95993.72;;;14.07;100.00
57628;BME280;43451;49.060;10.616;2023-08-06T01:27:08;95994.19;;;14.18;100.00
57628;BME280;43451;49.060;10.616;2023-08-06T01:29:45;95988.56;;;13.96;100.00
57628;BME280;43451;49.060;10.616;2023-08-06T01:32:14;95984.91;;;13.86;100.00
57628;BME280;43451;49.060;10.616;2023-08-06T01:34:41;95987.06;;;14.08;100.00
57628;BME280;43451;49.060;10.616;2023-08-06T01:37:09;95973.72;;;14.10;100.00
57628;BME280;43451;49.060;10.616;2023-08-06T01:39:35;95977.84;;;14.02;100.00
57628;BME280;43451;49.060;10.616;2023-08-06T01:42:01;95981.66;;;13.91;100.00
57628;BME280;43451;49.060;10.616;2023-08-06T01:44:26;95979.88;;;13.85;100.00
57628;BME280;43451;49.060;10.616;2023-08-06T01:46:52;95976.38;;;13.84;100.00
57628;BME280;43451;49.060;10.616;2023-08-06T01:49:17;95973.00;;;13.80;100.00
57628;BME280;43451;49.060;10.616;2023-08-06T01:51:43;95967.13;;;13.94;100.00
57628;BME280;43451;49.060;10.616;2023-08-06T01:54:08;95963.59;;;13.81;100.00
57628;BME280;43451;49.060;10.616;2023-08-06T01:56:34;95956.00;;;13.73;100.00
57628;BME280;43451;49.060;10.616;2023-08-06T01:58:59;95951.75;;;13.72;100.00
57628;BME280;43451;49.060;10.616;2023-08-06T02:01:25;95943.81;;;13.77;100.00
57628;BME280;43451;49.060;10.616;2023-08-06T02:03:50;95938.53;;;13.70;100.00
57628;BME280;43451;49.060;10.616;2023-08-06T02:06:16;95958.84;;;13.69;100.00
57628;BME280;43451;49.060;10.616;2023-08-06T02:08:41;95961.06;;;13.74;100.00
57628;BME280;43451;49.060;10.616;2023-08-06T02:11:07;95952.25;;;13.83;100.00
57628;BME280;43451;49.060;10.616;2023-08-06T02:13:33;95947.97;;;13.82;100.00
57628;BME280;43451;49.060;10.616;2023-08-06T02:15:58;95946.56;;;13.77;100.00
57628;BME280;43451;49.060;10.616;2023-08-06T02:18:25;95945.78;;;13.77;100.00
57628;BME280;43451;49.060;10.616;2023-08-06T02:20:58;95940.66;;;13.79;100.00
57628;BME280;43451;49.060;10.616;2023-08-06T02:23:24;95924.81;;;13.74;100.00
57628;BME280;43451;49.060;10.616;2023-08-06T02:26:03;95924.72;;;13.77;100.00
57628;BME280;43451;49.060;10.616;2023-08-06T02:28:32;95915.59;;;13.97;100.00
57628;BME280;43451;49.060;10.616;2023-08-06T02:30:58;95923.84;;;13.80;100.00
57628;BME280;43451;49.060;10.616;2023-08-06T02:33:23;95918.91;;;13.75;100.00
57628;BME280;43451;49.060;10.616;2023-08-06T02:35:49;95906.66;;;13.67;100.00
57628;BME280;43451;49.060;10.616;2023-08-06T02:38:15;95893.69;;;13.71;100.00
57628;BME280;43451;49.060;10.616;2023-08-06T02:40:46;95901.19;;;13.67;100.00
57628;BME280;43451;49.060;10.616;2023-08-06T02:43:12;95892.00;;;13.61;100.00
57628;BME280;43451;49.060;10.616;2023-08-06T02:45:38;95897.03;;;13.62;100.00
57628;BME280;43451;49.060;10.616;2023-08-06T02:48:04;95885.00;;;13.60;100.00
57628;BME280;43451;49.060;10.616;2023-08-06T02:50:30;95888.50;;;13.60;100.00
57628;BME280;43451;49.060;10.616;2023-08-06T02:52:55;95883.38;;;13.62;100.00
57628;BME280;43451;49.060;10.616;2023-08-06T02:55:20;95891.56;;;13.62;100.00
57628;BME280;43451;49.060;10.616;2023-08-06T02:57:46;95894.19;;;13.66;100.00
57628;BME280;43451;49.060;10.616;2023-08-06T03:00:11;95892.81;;;13.74;100.00
57628;BME280;43451;49.060;10.616;2023-08-06T03:02:37;95894.44;;;13.72;100.00
57628;BME280;43451;49.060;10.616;2023-08-06T03:05:03;95897.19;;;13.84;100.00
57628;BME280;43451;49.060;10.616;2023-08-06T03:07:29;95886.84;;;14.05;100.00
57628;BME280;43451;49.060;10.616;2023-08-06T03:09:54;95886.84;;;14.05;100.00
57628;BME280;43451;49.060;10.616;2023-08-06T03:12:20;95891.25;;;14.02;100.00
57628;BME280;43451;49.060;10.616;2023-08-06T03:14:45;95890.16;;;14.12;100.00
57628;BME280;43451;49.060;10.616;2023-08-06T03:17:11;95885.53;;;13.84;100.00
57628;BME280;43451;49.060;10.616;2023-08-06T03:19:36;95887.66;;;14.05;100.00
57628;BME280;43451;49.060;10.616;2023-08-06T03:22:02;95886.13;;;14.17;100.00
57628;BME280;43451;49.060;10.616;2023-08-06T03:24:27;95876.19;;;14.23;100.00
57628;BME280;43451;49.060;10.616;2023-08-06T03:26:53;95870.16;;;14.03;100.00
57628;BME280;43451;49.060;10.616;2023-08-06T03:29:18;95874.56;;;13.71;100.00
57628;BME280;43451;49.060;10.616;2023-08-06T03:31:44;95862.94;;;13.54;100.00
57628;BME280;43451;49.060;10.616;2023-08-06T03:34:09;95867.81;;;13.46;100.00
57628;BME280;43451;49.060;10.616;2023-08-06T03:36:35;95877.31;;;13.42;100.00
57628;BME280;43451;49.060;10.616;2023-08-06T03:39:00;95871.25;;;13.34;100.00
57628;BME280;43451;49.060;10.616;2023-08-06T03:41:25;95877.56;;;13.31;100.00
57628;BME280;43451;49.060;10.616;2023-08-06T03:43:51;95873.41;;;13.27;100.00
57628;BME280;43451;49.060;10.616;2023-08-06T03:46:16;95860.88;;;13.29;100.00
57628;BME280;43451;49.060;10.616;2023-08-06T03:48:42;95861.75;;;13.26;100.00
57628;BME280;43451;49.060;10.616;2023-08-06T03:51:07;95862.66;;;13.36;100.00
57628;BME280;43451;49.060;10.616;2023-08-06T03:53:33;95855.53;;;13.55;100.00
57628;BME280;43451;49.060;10.616;2023-08-06T03:55:59;95861.66;;;13.59;100.00
57628;BME280;43451;49.060;10.616;2023-08-06T03:58:26;95863.38;;;13.53;100.00
57628;BME280;43451;49.060;10.616;2023-08-06T04:01:01;95857.75;;;13.43;100.00
57628;BME280;43451;49.060;10.616;2023-08-06T04:03:27;95846.47;;;13.58;100.00
57628;BME280;43451;49.060;10.616;2023-08-06T04:05:54;95845.63;;;13.61;100.00
57628;BME280;43451;49.060;10.616;2023-08-06T04:08:20;95844.44;;;13.75;100.00
57628;BME280;43451;49.060;10.616;2023-08-06T04:10:49;95842.47;;;13.75;100.00
57628;BME280;43451;49.060;10.616;2023-08-06T04:13:14;95840.91;;;13.61;100.00
57628;BME280;43451;49.060;10.616;2023-08-06T04:15:40;95837.28;;;13.52;100.00
57628;BME280;43451;49.060;10.616;2023-08-06T04:18:05;95846.56;;;13.54;100.00
57628;BME280;43451;49.060;10.616;2023-08-06T04:20:31;95840.69;;;13.56;100.00
57628;BME280;43451;49.060;10.616;2023-08-06T04:22:56;95835.97;;;13.56;100.00
57628;BME280;43451;49.060;10.616;2023-08-06T04:25:22;95841.19;;;13.51;100.00
57628;BME280;43451;49.060;10.616;2023-08-06T04:27:48;95831.94;;;13.48;100.00
57628;BME280;43451;49.060;10.616;2023-08-06T04:30:14;95837.03;;;13.46;100.00
57628;BME280;43451;49.060;10.616;2023-08-06T04:32:40;95846.84;;;13.43;100.00
57628;BME280;43451;49.060;10.616;2023-08-06T04:35:05;95843.78;;;13.41;100.00
57628;BME280;43451;49.060;10.616;2023-08-06T04:37:31;95843.88;;;13.67;100.00
57628;BME280;43451;49.060;10.616;2023-08-06T04:39:56;95846.78;;;13.60;100.00
57628;BME280;43451;49.060;10.616;2023-08-06T04:42:22;95836.72;;;13.57;100.00
57628;BME280;43451;49.060;10.616;2023-08-06T04:44:47;95847.34;;;13.55;100.00
57628;BME280;43451;49.060;10.616;2023-08-06T04:47:13;95845.81;;;13.66;100.00
57628;BME280;43451;49.060;10.616;2023-08-06T04:49:38;95844.97;;;13.69;100.00
57628;BME280;43451;49.060;10.616;2023-08-06T04:52:04;95849.13;;;13.74;100.00
57628;BME280;43451;49.060;10.616;2023-08-06T04:54:30;95846.31;;;13.90;100.00
57628;BME280;43451;49.060;10.616;2023-08-06T04:56:55;95839.13;;;13.97;100.00
57628;BME280;43451;49.060;10.616;2023-08-06T04:59:21;95838.25;;;14.25;100.00
57628;BME280;43451;49.060;10.616;2023-08-06T05:01:46;95836.06;;;14.46;100.00
57628;BME280;43451;49.060;10.616;2023-08-06T05:04:12;95830.41;;;14.27;100.00
57628;BME280;43451;49.060;10.616;2023-08-06T05:06:37;95834.66;;;14.41;100.00
57628;BME280;43451;49.060;10.616;2023-08-06T05:09:07;95831.38;;;14.46;100.00
57628;BME280;43451;49.060;10.616;2023-08-06T05:11:33;95836.94;;;14.43;100.00
57628;BME280;43451;49.060;10.616;2023-08-06T05:13:58;95838.47;;;14.44;100.00
57628;BME280;43451;49.060;10.616;2023-08-06T05:16:24;95840.88;;;14.42;100.00
57628;BME280;43451;49.060;10.616;2023-08-06T05:18:49;95841.34;;;14.40;100.00
57628;BME280;43451;49.060;10.616;2023-08-06T05:21:15;95844.06;;;14.40;100.00
57628;BME280;43451;49.060;10.616;2023-08-06T05:23:42;95846.81;;;14.53;100.00
57628;BME280;43451;49.060;10.616;2023-08-06T05:26:08;95842.00;;;14.57;100.00
57628;BME280;43451;49.060;10.616;2023-08-06T05:28:34;95842.41;;;14.68;100.00
57628;BME280;43451;49.060;10.616;2023-08-06T05:31:03;95843.06;;;14.72;100.00
57628;BME280;43451;49.060;10.616;2023-08-06T05:33:29;95841.63;;;14.80;100.00
57628;BME280;43451;49.060;10.616;2023-08-06T05:35:54;95835.59;;;14.85;100.00
57628;BME280;43451;49.060;10.616;2023-08-06T05:38:19;95836.06;;;14.71;100.00
57628;BME280;43451;49.060;10.616;2023-08-06T05:40:45;95832.69;;;14.54;100.00
57628;BME280;43451;49.060;10.616;2023-08-06T05:43:10;95840.03;;;14.57;100.00
57628;BME280;43451;49.060;10.616;2023-08-06T05:45:36;95833.75;;;14.82;100.00
57628;BME280;43451;49.060;10.616;2023-08-06T05:48:01;95836.25;;;14.90;100.00
57628;BME280;43451;49.060;10.616;2023-08-06T05:50:27;95836.56;;;14.92;100.00
57628;BME280;43451;49.060;10.616;2023-08-06T05:52:53;95829.66;;;15.00;100.00
57628;BME280;43451;49.060;10.616;2023-08-06T05:55:19;95837.50;;;15.11;100.00
57628;BME280;43451;49.060;10.616;2023-08-06T05:57:45;95830.78;;;15.24;100.00
57628;BME280;43451;49.060;10.616;2023-08-06T06:00:11;95824.88;;;15.26;100.00
57628;BME280;43451;49.060;10.616;2023-08-06T06:02:36;95820.78;;;15.30;100.00
57628;BME280;43451;49.060;10.616;2023-08-06T06:05:02;95824.09;;;15.25;100.00
57628;BME280;43451;49.060;10.616;2023-08-06T06:07:27;95818.69;;;15.35;100.00
57628;BME280;43451;49.060;10.616;2023-08-06T06:09:53;95815.94;;;15.35;100.00
57628;BME280;43451;49.060;10.616;2023-08-06T06:12:18;95814.44;;;15.33;100.00
57628;BME280;43451;49.060;10.616;2023-08-06T06:14:44;95824.09;;;15.25;100.00
57628;BME280;43451;49.060;10.616;2023-08-06T06:17:11;95815.94;;;15.35;100.00
57628;BME280;43451;49.060;10.616;2023-08-06T06:19:36;95824.22;;;15.44;100.00
57628;BME280;43451;49.060;10.616;2023-08-06T06:22:02;95821.28;;;15.60;100.00
57628;BME280;43451;49.060;10.616;2023-08-06T06:24:27;95820.69;;;15.78;100.00
57628;BME280;43451;49.060;10.616;2023-08-06T06:26:52;95824.38;;;15.84;100.00
57628;BME280;43451;49.060;10.616;2023-08-06T06:29:18;95832.25;;;15.82;100.00
57628;BME280;43451;49.060;10.616;2023-08-06T06:31:43;95825.13;;;15.85;100.00
57628;BME280;43451;49.060;10.616;2023-08-06T06:34:09;95813.88;;;15.83;100.00
57628;BME280;43451;49.060;10.616;2023-08-06T06:36:34;95821.06;;;15.89;100.00
57628;BME280;43451;49.060;10.616;2023-08-06T06:39:00;95816.22;;;15.71;100.00
57628;BME280;43451;49.060;10.616;2023-08-06T06:41:25;95828.00;;;15.59;100.00
57628;BME280;43451;49.060;10.616;2023-08-06T06:43:51;95834.06;;;15.54;100.00
57628;BME280;43451;49.060;10.616;2023-08-06T06:46:17;95824.75;;;15.51;100.00
57628;BME280;43451;49.060;10.616;2023-08-06T06:48:42;95825.06;;;15.53;100.00
57628;BME280;43451;49.060;10.616;2023-08-06T06:51:08;95818.69;;;15.56;100.00
57628;BME280;43451;49.060;10.616;2023-08-06T06:53:33;95820.03;;;15.52;100.00
57628;BME280;43451;49.060;10.616;2023-08-06T06:56:04;95819.72;;;15.50;100.00
57628;BME280;43451;49.060;10.616;2023-08-06T06:58:30;95831.13;;;15.48;100.00
57628;BME280;43451;49.060;10.616;2023-08-06T07:00:56;95826.16;;;15.56;100.00
57628;BME280;43451;49.060;10.616;2023-08-06T07:03:22;95826.16;;;15.56;100.00
57628;BME280;43451;49.060;10.616;2023-08-06T07:05:47;95832.25;;;15.60;100.00
57628;BME280;43451;49.060;10.616;2023-08-06T07:08:13;95835.66;;;15.64;100.00
57628;BME280;43451;49.060;10.616;2023-08-06T07:10:41;95836.97;;;15.60;100.00
57628;BME280;43451;49.060;10.616;2023-08-06T07:13:07;95835.84;;;15.48;100.00
57628;BME280;43451;49.060;10.616;2023-08-06T07:15:33;95833.19;;;15.44;100.00
57628;BME280;43451;49.060;10.616;2023-08-06T07:17:58;95836.97;;;15.38;100.00
57628;BME280;43451;49.060;10.616;2023-08-06T07:20:24;95831.56;;;15.47;100.00
57628;BME280;43451;49.060;10.616;2023-08-06T07:22:49;95829.16;;;15.49;100.00
57628;BME280;43451;49.060;10.616;2023-08-06T07:25:16;95840.34;;;15.42;100.00
57628;BME280;43451;49.060;10.616;2023-08-06T07:27:42;95838.19;;;15.37;100.00
57628;BME280;43451;49.060;10.616;2023-08-06T07:30:07;95849.81;;;15.50;100.00
57628;BME280;43451;49.060;10.616;2023-08-06T07:32:33;95847.03;;;15.63;100.00
57628;BME280;43451;49.060;10.616;2023-08-06T07:34:59;95849.09;;;15.71;100.00
57628;BME280;43451;49.060;10.616;2023-08-06T07:37:28;95844.13;;;15.79;100.00
57628;BME280;43451;49.060;10.616;2023-08-06T07:39:57;95843.28;;;15.91;100.00
57628;BME280;43451;49.060;10.616;2023-08-06T07:42:22;95844.03;;;15.92;100.00
57628;BME280;43451;49.060;10.616;2023-08-06T07:44:55;95857.69;;;15.83;100.00
57628;BME280;43451;49.060;10.616;2023-08-06T07:47:21;95850.31;;;15.70;100.00
57628;BME280;43451;49.060;10.616;2023-08-06T07:49:47;95847.59;;;15.70;100.00
57628;BME280;43451;49.060;10.616;2023-08-06T07:52:12;95851.22;;;15.67;100.00
57628;BME280;43451;49.060;10.616;2023-08-06T07:54:38;95850.47;;;15.54;100.00
57628;BME280;43451;49.060;10.616;2023-08-06T07:57:03;95851.03;;;15.49;100.00
57628;BME280;43451;49.060;10.616;2023-08-06T07:59:29;95849.91;;;15.59;100.00
57628;BME280;43451;49.060;10.616;2023-08-06T08:01:54;95849.00;;;15.62;100.00
57628;BME280;43451;49.060;10.616;2023-08-06T08:04:20;95850.22;;;15.61;100.00
57628;BME280;43451;49.060;10.616;2023-08-06T08:06:46;95851.41;;;15.60;100.00
57628;BME280;43451;49.060;10.616;2023-08-06T08:09:12;95847.41;;;15.52;100.00
57628;BME280;43451;49.060;10.616;2023-08-06T08:11:39;95853.91;;;15.45;100.00
57628;BME280;43451;49.060;10.616;2023-08-06T08:14:05;95854.94;;;15.39;100.00
57628;BME280;43451;49.060;10.616;2023-08-06T08:16:30;95852.19;;;15.39;100.00
57628;BME280;43451;49.060;10.616;2023-08-06T08:18:56;95844.53;;;15.33;100.00
57628;BME280;43451;49.060;10.616;2023-08-06T08:21:21;95844.75;;;15.39;100.00
57628;BME280;43451;49.060;10.616;2023-08-06T08:23:49;95850.47;;;15.32;100.00
57628;BME280;43451;49.060;10.616;2023-08-06T08:26:15;95842.25;;;15.32;100.00
57628;BME280;43451;49.060;10.616;2023-08-06T08:28:41;95834.69;;;15.36;100.00
57628;BME280;43451;49.060;10.616;2023-08-06T08:31:10;95831.75;;;15.30;100.00
57628;BME280;43451;49.060;10.616;2023-08-06T08:33:39;95829.69;;;15.44;100.00
57628;BME280;43451;49.060;10.616;2023-08-06T08:36:05;95835.78;;;15.39;100.00
57628;BME280;43451;49.060;10.616;2023-08-06T08:38:30;95840.22;;;15.45;100.00
57628;BME280;43451;49.060;10.616;2023-08-06T08:40:56;95849.06;;;15.49;100.00
57628;BME280;43451;49.060;10.616;2023-08-06T08:43:22;95845.69;;;15.45;100.00
57628;BME280;43451;49.060;10.616;2023-08-06T08:45:51;95842.31;;;15.41;100.00
57628;BME280;43451;49.060;10.616;2023-08-06T08:48:18;95843.97;;;15.39;100.00
57628;BME280;43451;49.060;10.616;2023-08-06T08:50:47;95841.19;;;15.51;100.00
57628;BME280;43451;49.060;10.616;2023-08-06T08:53:14;95839.00;;;15.46;100.00
57628;BME280;43451;49.060;10.616;2023-08-06T08:55:42;95844.75;;;15.61;100.00
57628;BME280;43451;49.060;10.616;2023-08-06T08:58:08;95841.06;;;15.55;100.00
57628;BME280;43451;49.060;10.616;2023-08-06T09:00:34;95843.34;;;15.56;100.00
57628;BME280;43451;49.060;10.616;2023-08-06T09:03:01;95840.72;;;15.53;100.00
57628;BME280;43451;49.060;10.616;2023-08-06T09:05:29;95852.31;;;15.57;100.00
57628;BME280;43451;49.060;10.616;2023-08-06T09:08:02;95851.50;;;15.69;100.00
57628;BME280;43451;49.060;10.616;2023-08-06T09:10:28;95848.84;;;15.78;100.00
57628;BME280;43451;49.060;10.616;2023-08-06T09:12:56;95849.84;;;15.94;100.00
57628;BME280;43451;49.060;10.616;2023-08-06T09:15:25;95845.94;;;16.04;100.00
57628;BME280;43451;49.060;10.616;2023-08-06T09:17:55;95852.63;;;16.03;100.00
57628;BME280;43451;49.060;10.616;2023-08-06T09:20:20;95845.31;;;16.00;100.00
57628;BME280;43451;49.060;10.616;2023-08-06T09:22:47;95845.19;;;16.04;100.00
57628;BME280;43451;49.060;10.616;2023-08-06T09:25:22;95845.03;;;16.07;100.00
57628;BME280;43451;49.060;10.616;2023-08-06T09:27:53;95844.13;;;16.10;100.00
57628;BME280;43451;49.060;10.616;2023-08-06T09:30:32;95837.91;;;16.10;100.00
57628;BME280;43451;49.060;10.616;2023-08-06T09:32:58;95836.28;;;16.21;100.00
57628;BME280;43451;49.060;10.616;2023-08-06T09:35:24;95848.94;;;16.28;100.00
57628;BME280;43451;49.060;10.616;2023-08-06T09:37:50;95855.03;;;16.01;100.00
57628;BME280;43451;49.060;10.616;2023-08-06T09:40:29;95852.44;;;15.97;100.00
57628;BME280;43451;49.060;10.616;2023-08-06T09:42:55;95851.56;;;16.00;100.00
57628;BME280;43451;49.060;10.616;2023-08-06T09:45:22;95841.06;;;15.99;100.00
57628;BME280;43451;49.060;10.616;2023-08-06T09:47:52;95840.31;;;16.08;100.00
57628;BME280;43451;49.060;10.616;2023-08-06T09:50:20;95834.44;;;16.18;100.00
57628;BME280;43451;49.060;10.616;2023-08-06T09:52:47;95842.44;;;16.35;100.00
57628;BME280;43451;49.060;10.616;2023-08-06T09:55:14;95842.75;;;16.37;100.00
57628;BME280;43451;49.060;10.616;2023-08-06T09:57:41;95840.16;;;16.42;100.00
57628;BME280;43451;49.060;10.616;2023-08-06T10:00:08;95841.84;;;16.40;100.00
57628;BME280;43451;49.060;10.616;2023-08-06T10:02:37;95833.03;;;16.45;100.00
57628;BME280;43451;49.060;10.616;2023-08-06T10:05:02;95844.91;;;16.51;100.00
57628;BME280;43451;49.060;10.616;2023-08-06T10:07:29;95842.47;;;16.44;100.00
57628;BME280;43451;49.060;10.616;2023-08-06T10:09:55;95843.09;;;16.48;100.00
57628;BME280;43451;49.060;10.616;2023-08-06T10:12:22;95838.81;;;16.47;100.00
57628;BME280;43451;49.060;10.616;2023-08-06T10:14:51;95849.75;;;16.38;100.00
57628;BME280;43451;49.060;10.616;2023-08-06T10:17:20;95831.13;;;16.33;100.00
57628;BME280;43451;49.060;10.616;2023-08-06T10:19:47;95837.38;;;16.33;100.00
57628;BME280;43451;49.060;10.616;2023-08-06T10:22:17;95838.50;;;16.45;100.00
57628;BME280;43451;49.060;10.616;2023-08-06T10:24:57;95828.44;;;16.42;100.00
57628;BME280;43451;49.060;10.616;2023-08-06T10:27:34;95830.28;;;16.45;100.00
57628;BME280;43451;49.060;10.616;2023-08-06T10:32:49;95824.00;;;16.76;100.00
57628;BME280;43451;49.060;10.616;2023-08-06T10:38:08;95838.69;;;17.00;100.00
57628;BME280;43451;49.060;10.616;2023-08-06T10:40:36;95818.84;;;16.96;100.00
57628;BME280;43451;49.060;10.616;2023-08-06T10:43:03;95826.75;;;16.85;100.00
57628;BME280;43451;49.060;10.616;2023-08-06T10:45:29;95833.75;;;16.86;100.00
57628;BME280;43451;49.060;10.616;2023-08-06T10:47:56;95823.09;;;16.79;100.00
57628;BME280;43451;49.060;10.616;2023-08-06T10:50:24;95830.34;;;16.63;100.00
57628;BME280;43451;49.060;10.616;2023-08-06T10:52:50;95828.16;;;16.49;100.00
57628;BME280;43451;49.060;10.616;2023-08-06T10:55:34;95838.94;;;16.34;100.00
57628;BME280;43451;49.060;10.616;2023-08-06T10:58:00;95831.56;;;16.22;100.00
57628;BME280;43451;49.060;10.616;2023-08-06T11:00:25;95834.25;;;16.13;100.00
57628;BME280;43451;49.060;10.616;2023-08-06T11:02:52;95824.47;;;16.02;100.00
57628;BME280;43451;49.060;10.616;2023-08-06T11:05:18;95826.81;;;16.13;100.00
57628;BME280;43451;49.060;10.616;2023-08-06T11:07:44;95823.81;;;16.30;100.00
57628;BME280;43451;49.060;10.616;2023-08-06T11:10:11;95826.44;;;16.42;100.00
57628;BME280;43451;49.060;10.616;2023-08-06T11:12:37;95813.09;;;16.54;100.00
57628;BME280;43451;49.060;10.616;2023-08-06T11:15:03;95830.09;;;16.39;100.00
57628;BME280;43451;49.060;10.616;2023-08-06T11:17:32;95813.94;;;16.32;100.00
57628;BME280;43451;49.060;10.616;2023-08-06T11:20:02;95822.31;;;16.29;100.00
57628;BME280;43451;49.060;10.616;2023-08-06T11:22:28;95823.34;;;16.22;100.00
57628;BME280;43451;49.060;10.616;2023-08-06T11:24:54;95819.84;;;16.21;100.00
57628;BME280;43451;49.060;10.616;2023-08-06T11:27:20;95826.56;;;16.30;100.00
57628;BME280;43451;49.060;10.616;2023-08-06T11:29:45;95814.31;;;16.53;100.00
57628;BME280;43451;49.060;10.616;2023-08-06T11:32:11;95829.44;;;16.66;100.00
57628;BME280;43451;49.060;10.616;2023-08-06T11:34:38;95819.50;;;16.60;100.00
57628;BME280;43451;49.060;10.616;2023-08-06T11:37:04;95807.38;;;16.79;100.00
57628;BME280;43451;49.060;10.616;2023-08-06T11:39:37;95815.19;;;16.99;100.00
57628;BME280;43451;49.060;10.616;2023-08-06T11:42:04;95812.75;;;16.92;100.00
57628;BME280;43451;49.060;10.616;2023-08-06T11:44:32;95810.59;;;16.96;100.00
57628;BME280;43451;49.060;10.616;2023-08-06T11:47:03;95799.78;;;16.92;100.00
57628;BME280;43451;49.060;10.616;2023-08-06T11:52:31;95807.66;;;16.72;100.00
57628;BME280;43451;49.060;10.616;2023-08-06T11:55:03;95821.31;;;16.54;100.00
57628;BME280;43451;49.060;10.616;2023-08-06T11:57:32;95819.28;;;16.36;100.00
57628;BME280;43451;49.060;10.616;2023-08-06T12:00:13;95817.19;;;16.49;100.00
57628;BME280;43451;49.060;10.616;2023-08-06T12:02:40;95828.75;;;16.44;100.00
57628;BME280;43451;49.060;10.616;2023-08-06T12:07:50;95818.00;;;16.59;100.00
57628;BME280;43451;49.060;10.616;2023-08-06T12:10:16;95826.28;;;16.77;100.00
57628;BME280;43451;49.060;10.616;2023-08-06T12:12:42;95824.59;;;16.80;100.00
57628;BME280;43451;49.060;10.616;2023-08-06T12:15:09;95821.44;;;16.81;100.00
57628;BME280;43451;49.060;10.616;2023-08-06T12:17:35;95812.38;;;16.71;100.00
57628;BME280;43451;49.060;10.616;2023-08-06T12:20:02;95810.84;;;16.70;100.00
57628;BME280;43451;49.060;10.616;2023-08-06T12:22:29;95826.00;;;16.84;100.00
57628;BME280;43451;49.060;10.616;2023-08-06T12:25:02;95818.25;;;17.01;100.00
57628;BME280;43451;49.060;10.616;2023-08-06T12:27:29;95814.13;;;17.24;100.00
57628;BME280;43451;49.060;10.616;2023-08-06T12:29:55;95841.28;;;17.13;100.00
57628;BME280;43451;49.060;10.616;2023-08-06T12:32:20;95830.44;;;17.18;100.00
57628;BME280;43451;49.060;10.616;2023-08-06T12:34:47;95829.53;;;17.22;100.00
57628;BME280;43451;49.060;10.616;2023-08-06T12:37:15;95841.72;;;17.02;100.00
57628;BME280;43451;49.060;10.616;2023-08-06T12:39:42;95840.81;;;17.05;100.00
57628;BME280;43451;49.060;10.616;2023-08-06T12:42:07;95845.06;;;17.15;100.00
57628;BME280;43451;49.060;10.616;2023-08-06T12:44:33;95841.28;;;17.04;100.00
57628;BME280;43451;49.060;10.616;2023-08-06T12:46:59;95855.13;;;16.91;100.00
57628;BME280;43451;49.060;10.616;2023-08-06T12:49:25;95849.88;;;16.75;100.00
57628;BME280;43451;49.060;10.616;2023-08-06T12:51:52;95859.94;;;16.78;100.00